sensor_id;sensor_type;location;lat;lon;timestamp;P1;durP1;ratioP1;P2;durP2;ratioP2
4208;SDS011;36320;48.860;2.380;2022-12-18T00:01:02;9.05;;;2.92;;
4208;SDS011;36320;48.860;2.380;2022-12-18T00:03:34;10.75;;;3.35;;
4208;SDS011;36320;48.860;2.380;2022-12-18T00:06:01;13.40;;;3.90;;
4208;SDS011;36320;48.860;2.380;2022-12-18T00:08:27;11.30;;;2.92;;
4208;SDS011;36320;48.860;2.380;2022-12-18T00:10:53;11.98;;;2.58;;
4208;SDS011;36320;48.860;2.380;2022-12-18T00:13:18;11.30;;;4.43;;
4208;SDS011;36320;48.860;2.380;2022-12-18T00:15:44;10.17;;;3.07;;
4208;SDS011;36320;48.860;2.380;2022-12-18T00:18:10;10.90;;;2.83;;
4208;SDS011;36320;48.860;2.380;2022-12-18T00:20:36;9.75;;;2.90;;
4208;SDS011;36320;48.860;2.380;2022-12-18T00:23:03;12.00;;;3.67;;
4208;SDS011;36320;48.860;2.380;2022-12-18T00:25:29;13.57;;;3.50;;
4208;SDS011;36320;48.860;2.380;2022-12-18T00:27:58;11.77;;;3.30;;
4208;SDS011;36320;48.860;2.380;2022-12-18T00:30:23;10.15;;;3.10;;
4208;SDS011;36320;48.860;2.380;2022-12-18T00:32:49;10.53;;;3.50;;
4208;SDS011;36320;48.860;2.380;2022-12-18T00:35:17;9.43;;;3.40;;
4208;SDS011;36320;48.860;2.380;2022-12-18T00:37:42;9.45;;;2.65;;
4208;SDS011;36320;48.860;2.380;2022-12-18T00:40:08;9.30;;;2.77;;
4208;SDS011;36320;48.860;2.380;2022-12-18T00:42:34;10.50;;;2.40;;
4208;SDS011;36320;48.860;2.380;2022-12-18T00:45:19;13.38;;;3.00;;
4208;SDS011;36320;48.860;2.380;2022-12-18T00:47:48;7.72;;;2.50;;
4208;SDS011;36320;48.860;2.380;2022-12-18T00:50:14;8.43;;;2.33;;
4208;SDS011;36320;48.860;2.380;2022-12-18T00:52:40;9.30;;;3.05;;
4208;SDS011;36320;48.860;2.380;2022-12-18T00:55:06;10.07;;;3.03;;
4208;SDS011;36320;48.860;2.380;2022-12-18T00:57:35;9.88;;;3.58;;
4208;SDS011;36320;48.860;2.380;2022-12-18T01:00:05;12.27;;;3.50;;
4208;SDS011;36320;48.860;2.380;2022-12-18T01:02:33;13.80;;;3.40;;
4208;SDS011;36320;48.860;2.380;2022-12-18T01:04:58;12.40;;;2.77;;
4208;SDS011;36320;48.860;2.380;2022-12-18T01:07:24;7.70;;;2.50;;
4208;SDS011;36320;48.860;2.380;2022-12-18T01:09:50;12.25;;;3.63;;
4208;SDS011;36320;48.860;2.380;2022-12-18T01:12:15;12.80;;;3.10;;
4208;SDS011;36320;48.860;2.380;2022-12-18T01:14:41;10.68;;;3.20;;
4208;SDS011;36320;48.860;2.380;2022-12-18T01:17:07;10.05;;;3.17;;
4208;SDS011;36320;48.860;2.380;2022-12-18T01:19:33;8.73;;;3.40;;
4208;SDS011;36320;48.860;2.380;2022-12-18T01:21:58;11.55;;;3.50;;
4208;SDS011;36320;48.860;2.380;2022-12-18T01:24:24;10.90;;;2.60;;
4208;SDS011;36320;48.860;2.380;2022-12-18T01:26:50;9.23;;;2.45;;
4208;SDS011;36320;48.860;2.380;2022-12-18T01:29:16;10.53;;;3.07;;
4208;SDS011;36320;48.860;2.380;2022-12-18T01:31:41;11.63;;;3.50;;
4208;SDS011;36320;48.860;2.380;2022-12-18T01:34:08;8.18;;;2.60;;
4208;SDS011;36320;48.860;2.380;2022-12-18T01:36:35;8.50;;;3.00;;
4208;SDS011;36320;48.860;2.380;2022-12-18T01:39:03;11.98;;;3.40;;
4208;SDS011;36320;48.860;2.380;2022-12-18T01:41:38;12.82;;;3.17;;
4208;SDS011;36320;48.860;2.380;2022-12-18T01:45:21;11.93;;;3.58;;
4208;SDS011;36320;48.860;2.380;2022-12-18T01:49:59;8.85;;;2.40;;
4208;SDS011;36320;48.860;2.380;2022-12-18T01:52:29;11.00;;;2.55;;
4208;SDS011;36320;48.860;2.380;2022-12-18T01:54:57;8.30;;;2.50;;
4208;SDS011;36320;48.860;2.380;2022-12-18T01:57:24;9.37;;;3.23;;
4208;SDS011;36320;48.860;2.380;2022-12-18T01:59:52;10.95;;;3.25;;
4208;SDS011;36320;48.860;2.380;2022-12-18T02:02:19;8.70;;;3.30;;
4208;SDS011;36320;48.860;2.380;2022-12-18T02:04:46;8.25;;;2.65;;
4208;SDS011;36320;48.860;2.380;2022-12-18T02:09:56;17.67;;;2.50;;
4208;SDS011;36320;48.860;2.380;2022-12-18T02:12:45;12.10;;;2.60;;
4208;SDS011;36320;48.860;2.380;2022-12-18T02:17:50;8.10;;;2.70;;
4208;SDS011;36320;48.860;2.380;2022-12-18T02:20:23;8.85;;;2.47;;
4208;SDS011;36320;48.860;2.380;2022-12-18T02:28:01;11.07;;;3.08;;
4208;SDS011;36320;48.860;2.380;2022-12-18T02:30:31;9.07;;;2.67;;
4208;SDS011;36320;48.860;2.380;2022-12-18T02:33:00;15.05;;;3.38;;
4208;SDS011;36320;48.860;2.380;2022-12-18T02:35:29;9.73;;;2.67;;
4208;SDS011;36320;48.860;2.380;2022-12-18T02:37:56;9.67;;;2.63;;
4208;SDS011;36320;48.860;2.380;2022-12-18T02:40:24;10.30;;;3.00;;
4208;SDS011;36320;48.860;2.380;2022-12-18T02:42:51;10.73;;;3.28;;
4208;SDS011;36320;48.860;2.380;2022-12-18T02:45:17;13.13;;;3.88;;
4208;SDS011;36320;48.860;2.380;2022-12-18T02:47:43;11.35;;;3.22;;
4208;SDS011;36320;48.860;2.380;2022-12-18T02:50:16;10.63;;;3.20;;
4208;SDS011;36320;48.860;2.380;2022-12-18T02:55:48;8.37;;;2.73;;
4208;SDS011;36320;48.860;2.380;2022-12-18T03:03:58;9.80;;;2.60;;
4208;SDS011;36320;48.860;2.380;2022-12-18T03:06:29;13.00;;;3.15;;
4208;SDS011;36320;48.860;2.380;2022-12-18T03:08:59;6.82;;;2.33;;
4208;SDS011;36320;48.860;2.380;2022-12-18T03:11:32;7.72;;;2.30;;
4208;SDS011;36320;48.860;2.380;2022-12-18T03:14:20;11.63;;;2.95;;
4208;SDS011;36320;48.860;2.380;2022-12-18T03:16:49;10.20;;;2.95;;
4208;SDS011;36320;48.860;2.380;2022-12-18T03:19:20;11.20;;;3.13;;
4208;SDS011;36320;48.860;2.380;2022-12-18T03:21:53;11.80;;;2.63;;
4208;SDS011;36320;48.860;2.380;2022-12-18T03:24:21;13.07;;;3.15;;
4208;SDS011;36320;48.860;2.380;2022-12-18T03:26:50;11.57;;;3.10;;
4208;SDS011;36320;48.860;2.380;2022-12-18T03:29:22;12.30;;;3.10;;
4208;SDS011;36320;48.860;2.380;2022-12-18T03:31:53;14.03;;;3.00;;
4208;SDS011;36320;48.860;2.380;2022-12-18T03:34:25;13.07;;;3.10;;
4208;SDS011;36320;48.860;2.380;2022-12-18T03:36:55;12.50;;;3.08;;
4208;SDS011;36320;48.860;2.380;2022-12-18T03:39:21;10.05;;;3.70;;
4208;SDS011;36320;48.860;2.380;2022-12-18T03:41:59;8.35;;;2.90;;
4208;SDS011;36320;48.860;2.380;2022-12-18T03:45:11;11.48;;;3.85;;
4208;SDS011;36320;48.860;2.380;2022-12-18T03:47:44;13.30;;;3.17;;
4208;SDS011;36320;48.860;2.380;2022-12-18T03:55:48;9.27;;;2.40;;
4208;SDS011;36320;48.860;2.380;2022-12-18T03:58:17;9.02;;;3.33;;
4208;SDS011;36320;48.860;2.380;2022-12-18T04:00:48;6.00;;;2.07;;
4208;SDS011;36320;48.860;2.380;2022-12-18T04:03:16;9.88;;;3.67;;
4208;SDS011;36320;48.860;2.380;2022-12-18T04:05:44;8.15;;;2.08;;
4208;SDS011;36320;48.860;2.380;2022-12-18T04:08:13;13.98;;;2.42;;
4208;SDS011;36320;48.860;2.380;2022-12-18T04:10:39;11.48;;;3.08;;
4208;SDS011;36320;48.860;2.380;2022-12-18T04:13:04;12.65;;;3.55;;
4208;SDS011;36320;48.860;2.380;2022-12-18T04:15:31;10.03;;;2.73;;
4208;SDS011;36320;48.860;2.380;2022-12-18T04:18:01;14.00;;;3.08;;
4208;SDS011;36320;48.860;2.380;2022-12-18T04:20:27;9.15;;;3.30;;
4208;SDS011;36320;48.860;2.380;2022-12-18T04:22:52;24.88;;;3.47;;
4208;SDS011;36320;48.860;2.380;2022-12-18T04:25:18;9.90;;;2.60;;
4208;SDS011;36320;48.860;2.380;2022-12-18T04:27:44;10.30;;;2.65;;
4208;SDS011;36320;48.860;2.380;2022-12-18T04:30:09;9.02;;;2.60;;
4208;SDS011;36320;48.860;2.380;2022-12-18T04:32:35;10.55;;;3.28;;
4208;SDS011;36320;48.860;2.380;2022-12-18T04:35:01;7.93;;;2.83;;
4208;SDS011;36320;48.860;2.380;2022-12-18T04:37:29;10.48;;;2.60;;
4208;SDS011;36320;48.860;2.380;2022-12-18T04:39:55;10.65;;;3.08;;
4208;SDS011;36320;48.860;2.380;2022-12-18T04:42:20;10.20;;;3.13;;
4208;SDS011;36320;48.860;2.380;2022-12-18T04:44:46;10.85;;;2.50;;
4208;SDS011;36320;48.860;2.380;2022-12-18T04:47:11;7.65;;;2.70;;
4208;SDS011;36320;48.860;2.380;2022-12-18T04:49:37;7.93;;;2.37;;
4208;SDS011;36320;48.860;2.380;2022-12-18T04:52:03;10.65;;;2.80;;
4208;SDS011;36320;48.860;2.380;2022-12-18T04:54:29;11.98;;;2.90;;
4208;SDS011;36320;48.860;2.380;2022-12-18T04:56:54;14.73;;;2.70;;
4208;SDS011;36320;48.860;2.380;2022-12-18T04:59:20;7.25;;;2.45;;
4208;SDS011;36320;48.860;2.380;2022-12-18T05:01:46;9.85;;;3.58;;
4208;SDS011;36320;48.860;2.380;2022-12-18T05:04:11;8.70;;;3.13;;
4208;SDS011;36320;48.860;2.380;2022-12-18T05:06:37;8.00;;;2.80;;
4208;SDS011;36320;48.860;2.380;2022-12-18T05:09:02;8.23;;;2.73;;
4208;SDS011;36320;48.860;2.380;2022-12-18T05:11:28;8.00;;;2.78;;
4208;SDS011;36320;48.860;2.380;2022-12-18T05:13:54;9.30;;;2.57;;
4208;SDS011;36320;48.860;2.380;2022-12-18T05:16:19;10.40;;;3.23;;
4208;SDS011;36320;48.860;2.380;2022-12-18T05:18:45;10.38;;;3.25;;
4208;SDS011;36320;48.860;2.380;2022-12-18T05:21:11;8.47;;;1.93;;
4208;SDS011;36320;48.860;2.380;2022-12-18T05:23:36;10.02;;;2.75;;
4208;SDS011;36320;48.860;2.380;2022-12-18T05:26:03;9.35;;;2.50;;
4208;SDS011;36320;48.860;2.380;2022-12-18T05:28:31;12.20;;;3.75;;
4208;SDS011;36320;48.860;2.380;2022-12-18T05:30:59;8.90;;;3.20;;
4208;SDS011;36320;48.860;2.380;2022-12-18T05:33:29;11.50;;;3.15;;
4208;SDS011;36320;48.860;2.380;2022-12-18T05:35:58;7.50;;;2.20;;
4208;SDS011;36320;48.860;2.380;2022-12-18T05:38:25;10.18;;;3.63;;
4208;SDS011;36320;48.860;2.380;2022-12-18T05:40:51;10.25;;;2.60;;
4208;SDS011;36320;48.860;2.380;2022-12-18T05:43:18;8.23;;;2.60;;
4208;SDS011;36320;48.860;2.380;2022-12-18T05:45:44;10.07;;;3.00;;
4208;SDS011;36320;48.860;2.380;2022-12-18T05:48:13;13.77;;;2.70;;
4208;SDS011;36320;48.860;2.380;2022-12-18T05:50:41;11.82;;;3.05;;
4208;SDS011;36320;48.860;2.380;2022-12-18T05:53:08;10.60;;;3.15;;
4208;SDS011;36320;48.860;2.380;2022-12-18T05:55:34;8.45;;;2.90;;
4208;SDS011;36320;48.860;2.380;2022-12-18T05:58:01;7.73;;;2.70;;
4208;SDS011;36320;48.860;2.380;2022-12-18T06:00:29;8.40;;;2.60;;
4208;SDS011;36320;48.860;2.380;2022-12-18T06:02:55;8.50;;;2.60;;
4208;SDS011;36320;48.860;2.380;2022-12-18T06:05:21;12.50;;;2.90;;
4208;SDS011;36320;48.860;2.380;2022-12-18T06:07:46;9.80;;;2.50;;
4208;SDS011;36320;48.860;2.380;2022-12-18T06:10:12;10.10;;;3.60;;
4208;SDS011;36320;48.860;2.380;2022-12-18T06:12:38;8.30;;;2.63;;
4208;SDS011;36320;48.860;2.380;2022-12-18T06:15:03;10.75;;;3.20;;
4208;SDS011;36320;48.860;2.380;2022-12-18T06:17:30;7.13;;;2.63;;
4208;SDS011;36320;48.860;2.380;2022-12-18T06:19:56;7.68;;;2.60;;
4208;SDS011;36320;48.860;2.380;2022-12-18T06:22:22;15.23;;;2.22;;
4208;SDS011;36320;48.860;2.380;2022-12-18T06:24:48;9.88;;;3.20;;
4208;SDS011;36320;48.860;2.380;2022-12-18T06:27:14;14.00;;;2.57;;
4208;SDS011;36320;48.860;2.380;2022-12-18T06:29:40;7.80;;;2.33;;
4208;SDS011;36320;48.860;2.380;2022-12-18T06:32:06;8.95;;;2.65;;
4208;SDS011;36320;48.860;2.380;2022-12-18T06:34:32;8.30;;;2.70;;
4208;SDS011;36320;48.860;2.380;2022-12-18T06:36:58;11.52;;;2.75;;
4208;SDS011;36320;48.860;2.380;2022-12-18T06:39:24;9.40;;;3.00;;
4208;SDS011;36320;48.860;2.380;2022-12-18T06:41:52;10.50;;;3.08;;
4208;SDS011;36320;48.860;2.380;2022-12-18T06:44:17;7.23;;;2.27;;
4208;SDS011;36320;48.860;2.380;2022-12-18T06:46:43;8.57;;;2.50;;
4208;SDS011;36320;48.860;2.380;2022-12-18T06:49:09;9.38;;;2.80;;
4208;SDS011;36320;48.860;2.380;2022-12-18T06:51:34;13.80;;;3.17;;
4208;SDS011;36320;48.860;2.380;2022-12-18T06:54:00;9.43;;;2.90;;
4208;SDS011;36320;48.860;2.380;2022-12-18T06:56:26;12.27;;;3.15;;
4208;SDS011;36320;48.860;2.380;2022-12-18T06:58:52;9.82;;;2.70;;
4208;SDS011;36320;48.860;2.380;2022-12-18T07:01:20;9.50;;;2.47;;
4208;SDS011;36320;48.860;2.380;2022-12-18T07:03:47;7.82;;;2.58;;
4208;SDS011;36320;48.860;2.380;2022-12-18T07:06:18;8.68;;;2.28;;
4208;SDS011;36320;48.860;2.380;2022-12-18T07:08:46;9.38;;;3.40;;
4208;SDS011;36320;48.860;2.380;2022-12-18T07:11:12;9.27;;;2.95;;
4208;SDS011;36320;48.860;2.380;2022-12-18T07:13:39;9.63;;;2.65;;
4208;SDS011;36320;48.860;2.380;2022-12-18T07:16:05;9.33;;;2.97;;
4208;SDS011;36320;48.860;2.380;2022-12-18T07:18:32;9.55;;;2.40;;
4208;SDS011;36320;48.860;2.380;2022-12-18T07:20:58;7.13;;;2.17;;
4208;SDS011;36320;48.860;2.380;2022-12-18T07:23:27;6.80;;;2.40;;
4208;SDS011;36320;48.860;2.380;2022-12-18T07:25:52;8.25;;;2.60;;
4208;SDS011;36320;48.860;2.380;2022-12-18T07:28:18;9.85;;;2.42;;
4208;SDS011;36320;48.860;2.380;2022-12-18T07:30:43;9.53;;;3.20;;
4208;SDS011;36320;48.860;2.380;2022-12-18T07:33:09;12.88;;;3.60;;
4208;SDS011;36320;48.860;2.380;2022-12-18T07:35:38;7.40;;;2.30;;
4208;SDS011;36320;48.860;2.380;2022-12-18T07:38:03;8.30;;;2.47;;
4208;SDS011;36320;48.860;2.380;2022-12-18T07:40:29;6.90;;;2.63;;
4208;SDS011;36320;48.860;2.380;2022-12-18T07:42:55;9.50;;;2.63;;
4208;SDS011;36320;48.860;2.380;2022-12-18T07:45:20;10.68;;;2.35;;
4208;SDS011;36320;48.860;2.380;2022-12-18T07:47:46;8.50;;;2.60;;
4208;SDS011;36320;48.860;2.380;2022-12-18T07:50:12;9.80;;;2.90;;
4208;SDS011;36320;48.860;2.380;2022-12-18T07:52:38;14.60;;;2.70;;
4208;SDS011;36320;48.860;2.380;2022-12-18T07:55:04;9.47;;;2.87;;
4208;SDS011;36320;48.860;2.380;2022-12-18T07:57:30;7.10;;;2.47;;
4208;SDS011;36320;48.860;2.380;2022-12-18T07:59:56;11.75;;;3.13;;
4208;SDS011;36320;48.860;2.380;2022-12-18T08:02:21;10.10;;;3.05;;
4208;SDS011;36320;48.860;2.380;2022-12-18T08:04:47;8.20;;;2.90;;
4208;SDS011;36320;48.860;2.380;2022-12-18T08:07:12;8.00;;;2.80;;
4208;SDS011;36320;48.860;2.380;2022-12-18T08:09:38;12.13;;;3.40;;
4208;SDS011;36320;48.860;2.380;2022-12-18T08:12:04;6.00;;;1.90;;
4208;SDS011;36320;48.860;2.380;2022-12-18T08:14:30;9.77;;;3.17;;
4208;SDS011;36320;48.860;2.380;2022-12-18T08:16:56;9.60;;;3.40;;
4208;SDS011;36320;48.860;2.380;2022-12-18T08:19:21;17.85;;;3.53;;
4208;SDS011;36320;48.860;2.380;2022-12-18T08:21:47;9.33;;;2.60;;
4208;SDS011;36320;48.860;2.380;2022-12-18T08:24:13;18.20;;;5.70;;
4208;SDS011;36320;48.860;2.380;2022-12-18T08:26:39;15.07;;;5.97;;
4208;SDS011;36320;48.860;2.380;2022-12-18T08:29:05;19.42;;;6.43;;
4208;SDS011;36320;48.860;2.380;2022-12-18T08:31:30;18.07;;;6.20;;
4208;SDS011;36320;48.860;2.380;2022-12-18T08:33:56;18.03;;;6.10;;
4208;SDS011;36320;48.860;2.380;2022-12-18T08:36:22;18.17;;;5.90;;
4208;SDS011;36320;48.860;2.380;2022-12-18T08:38:49;11.57;;;4.53;;
4208;SDS011;36320;48.860;2.380;2022-12-18T08:41:15;18.38;;;6.28;;
4208;SDS011;36320;48.860;2.380;2022-12-18T08:43:42;17.80;;;6.25;;
4208;SDS011;36320;48.860;2.380;2022-12-18T08:46:27;17.70;;;6.03;;
4208;SDS011;36320;48.860;2.380;2022-12-18T08:48:59;18.77;;;6.13;;
4208;SDS011;36320;48.860;2.380;2022-12-18T08:51:26;17.55;;;5.90;;
4208;SDS011;36320;48.860;2.380;2022-12-18T08:53:52;17.15;;;5.30;;
4208;SDS011;36320;48.860;2.380;2022-12-18T08:56:17;17.70;;;6.00;;
4208;SDS011;36320;48.860;2.380;2022-12-18T08:58:43;15.83;;;6.07;;
4208;SDS011;36320;48.860;2.380;2022-12-18T09:01:10;14.20;;;5.53;;
4208;SDS011;36320;48.860;2.380;2022-12-18T09:03:37;19.35;;;5.75;;
4208;SDS011;36320;48.860;2.380;2022-12-18T09:06:03;15.75;;;5.53;;
4208;SDS011;36320;48.860;2.380;2022-12-18T09:08:30;15.43;;;5.35;;
4208;SDS011;36320;48.860;2.380;2022-12-18T09:10:56;22.02;;;6.10;;
4208;SDS011;36320;48.860;2.380;2022-12-18T09:13:22;21.08;;;6.00;;
4208;SDS011;36320;48.860;2.380;2022-12-18T09:15:48;20.33;;;6.28;;
4208;SDS011;36320;48.860;2.380;2022-12-18T09:18:20;19.95;;;5.57;;
4208;SDS011;36320;48.860;2.380;2022-12-18T09:20:47;16.80;;;6.10;;
4208;SDS011;36320;48.860;2.380;2022-12-18T09:23:13;16.17;;;5.35;;
4208;SDS011;36320;48.860;2.380;2022-12-18T09:25:39;17.02;;;5.25;;
4208;SDS011;36320;48.860;2.380;2022-12-18T09:28:16;13.10;;;4.90;;
4208;SDS011;36320;48.860;2.380;2022-12-18T09:30:47;17.85;;;5.75;;
4208;SDS011;36320;48.860;2.380;2022-12-18T09:33:14;14.93;;;5.60;;
4208;SDS011;36320;48.860;2.380;2022-12-18T09:35:41;16.23;;;5.50;;
4208;SDS011;36320;48.860;2.380;2022-12-18T09:38:08;17.65;;;5.72;;
4208;SDS011;36320;48.860;2.380;2022-12-18T09:40:53;18.85;;;6.50;;
4208;SDS011;36320;48.860;2.380;2022-12-18T09:43:28;16.43;;;5.90;;
4208;SDS011;36320;48.860;2.380;2022-12-18T09:46:11;19.45;;;6.32;;
4208;SDS011;36320;48.860;2.380;2022-12-18T09:48:47;18.63;;;6.38;;
4208;SDS011;36320;48.860;2.380;2022-12-18T09:53:49;20.20;;;5.80;;
4208;SDS011;36320;48.860;2.380;2022-12-18T09:56:20;16.90;;;6.13;;
4208;SDS011;36320;48.860;2.380;2022-12-18T10:01:26;17.77;;;6.38;;
4208;SDS011;36320;48.860;2.380;2022-12-18T10:03:54;21.60;;;7.10;;
4208;SDS011;36320;48.860;2.380;2022-12-18T10:14:41;19.42;;;5.97;;
4208;SDS011;36320;48.860;2.380;2022-12-18T10:19:55;23.10;;;6.60;;
4208;SDS011;36320;48.860;2.380;2022-12-18T10:22:38;14.95;;;5.80;;
4208;SDS011;36320;48.860;2.380;2022-12-18T10:28:00;16.90;;;6.30;;
4208;SDS011;36320;48.860;2.380;2022-12-18T10:30:35;18.67;;;6.30;;
4208;SDS011;36320;48.860;2.380;2022-12-18T10:33:03;17.10;;;5.97;;
4208;SDS011;36320;48.860;2.380;2022-12-18T10:35:29;17.70;;;5.70;;
4208;SDS011;36320;48.860;2.380;2022-12-18T10:40:29;18.38;;;6.40;;
4208;SDS011;36320;48.860;2.380;2022-12-18T10:43:09;19.58;;;6.05;;
4208;SDS011;36320;48.860;2.380;2022-12-18T10:45:37;20.17;;;7.00;;
4208;SDS011;36320;48.860;2.380;2022-12-18T10:48:03;18.05;;;6.90;;
4208;SDS011;36320;48.860;2.380;2022-12-18T10:52:57;20.80;;;6.45;;
4208;SDS011;36320;48.860;2.380;2022-12-18T10:55:32;19.13;;;6.20;;
4208;SDS011;36320;48.860;2.380;2022-12-18T11:03:58;17.90;;;6.10;;
4208;SDS011;36320;48.860;2.380;2022-12-18T11:06:26;18.70;;;6.50;;
4208;SDS011;36320;48.860;2.380;2022-12-18T11:11:48;19.40;;;6.80;;
4208;SDS011;36320;48.860;2.380;2022-12-18T11:14:24;18.97;;;6.80;;
4208;SDS011;36320;48.860;2.380;2022-12-18T11:16:58;19.30;;;6.13;;
4208;SDS011;36320;48.860;2.380;2022-12-18T11:22:00;18.65;;;6.40;;
4208;SDS011;36320;48.860;2.380;2022-12-18T11:24:42;17.17;;;5.93;;
4208;SDS011;36320;48.860;2.380;2022-12-18T11:27:16;19.83;;;5.80;;
4208;SDS011;36320;48.860;2.380;2022-12-18T11:29:46;16.20;;;5.93;;
4208;SDS011;36320;48.860;2.380;2022-12-18T11:35:38;17.60;;;6.70;;
4208;SDS011;36320;48.860;2.380;2022-12-18T11:37:49;19.63;;;6.10;;
4208;SDS011;36320;48.860;2.380;2022-12-18T11:40:29;19.05;;;6.03;;
4208;SDS011;36320;48.860;2.380;2022-12-18T11:46:02;14.07;;;5.30;;
4208;SDS011;36320;48.860;2.380;2022-12-18T11:48:40;18.23;;;6.00;;
4208;SDS011;36320;48.860;2.380;2022-12-18T11:51:17;17.75;;;5.88;;
4208;SDS011;36320;48.860;2.380;2022-12-18T11:53:52;22.98;;;6.60;;
4208;SDS011;36320;48.860;2.380;2022-12-18T12:10:10;19.98;;;6.43;;
4208;SDS011;36320;48.860;2.380;2022-12-18T12:15:33;19.20;;;6.10;;
4208;SDS011;36320;48.860;2.380;2022-12-18T12:21:06;17.48;;;6.05;;
4208;SDS011;36320;48.860;2.380;2022-12-18T12:29:09;19.48;;;7.22;;
4208;SDS011;36320;48.860;2.380;2022-12-18T12:31:56;20.63;;;7.32;;
4208;SDS011;36320;48.860;2.380;2022-12-18T12:37:13;19.73;;;6.65;;
4208;SDS011;36320;48.860;2.380;2022-12-18T12:40:00;18.30;;;6.13;;
4208;SDS011;36320;48.860;2.380;2022-12-18T12:48:05;18.52;;;6.43;;
4208;SDS011;36320;48.860;2.380;2022-12-18T12:50:40;16.42;;;5.93;;
4208;SDS011;36320;48.860;2.380;2022-12-18T12:53:07;19.13;;;6.90;;
4208;SDS011;36320;48.860;2.380;2022-12-18T12:55:39;21.80;;;7.20;;
4208;SDS011;36320;48.860;2.380;2022-12-18T13:03:32;17.80;;;6.47;;
4208;SDS011;36320;48.860;2.380;2022-12-18T13:06:18;20.52;;;6.90;;
4208;SDS011;36320;48.860;2.380;2022-12-18T13:09:01;18.65;;;6.15;;
4208;SDS011;36320;48.860;2.380;2022-12-18T13:14:45;17.90;;;5.90;;
4208;SDS011;36320;48.860;2.380;2022-12-18T13:19:41;17.63;;;5.87;;
4208;SDS011;36320;48.860;2.380;2022-12-18T13:22:22;18.42;;;6.10;;
4208;SDS011;36320;48.860;2.380;2022-12-18T13:24:50;21.55;;;6.63;;
4208;SDS011;36320;48.860;2.380;2022-12-18T13:27:58;16.30;;;6.20;;
4208;SDS011;36320;48.860;2.380;2022-12-18T13:38:20;15.73;;;5.97;;
4208;SDS011;36320;48.860;2.380;2022-12-18T13:46:18;18.90;;;6.00;;
4208;SDS011;36320;48.860;2.380;2022-12-18T13:51:17;17.73;;;6.90;;
4208;SDS011;36320;48.860;2.380;2022-12-18T13:56:23;17.63;;;5.80;;
4208;SDS011;36320;48.860;2.380;2022-12-18T14:01:45;21.48;;;7.22;;
4208;SDS011;36320;48.860;2.380;2022-12-18T14:06:49;16.97;;;5.60;;
4208;SDS011;36320;48.860;2.380;2022-12-18T14:09:20;15.52;;;5.85;;
4208;SDS011;36320;48.860;2.380;2022-12-18T14:11:56;17.00;;;6.10;;
4208;SDS011;36320;48.860;2.380;2022-12-18T14:14:47;18.58;;;6.70;;
4208;SDS011;36320;48.860;2.380;2022-12-18T14:17:17;20.55;;;5.90;;
4208;SDS011;36320;48.860;2.380;2022-12-18T14:19:45;17.98;;;6.68;;
4208;SDS011;36320;48.860;2.380;2022-12-18T14:22:14;20.83;;;5.88;;
4208;SDS011;36320;48.860;2.380;2022-12-18T14:27:52;16.52;;;6.15;;
4208;SDS011;36320;48.860;2.380;2022-12-18T14:33:01;18.85;;;7.18;;
4208;SDS011;36320;48.860;2.380;2022-12-18T14:35:28;16.85;;;5.72;;
4208;SDS011;36320;48.860;2.380;2022-12-18T14:38:08;21.95;;;5.88;;
4208;SDS011;36320;48.860;2.380;2022-12-18T14:40:35;16.33;;;6.07;;
4208;SDS011;36320;48.860;2.380;2022-12-18T14:43:01;18.48;;;6.00;;
4208;SDS011;36320;48.860;2.380;2022-12-18T14:45:34;18.67;;;6.10;;
4208;SDS011;36320;48.860;2.380;2022-12-18T14:56:20;17.33;;;6.20;;
4208;SDS011;36320;48.860;2.380;2022-12-18T15:01:44;14.35;;;5.40;;
4208;SDS011;36320;48.860;2.380;2022-12-18T15:04:33;16.92;;;5.93;;
4208;SDS011;36320;48.860;2.380;2022-12-18T15:09:42;17.25;;;5.45;;
4208;SDS011;36320;48.860;2.380;2022-12-18T15:12:35;15.40;;;5.55;;
4208;SDS011;36320;48.860;2.380;2022-12-18T15:15:04;19.67;;;6.20;;
4208;SDS011;36320;48.860;2.380;2022-12-18T15:17:56;20.38;;;6.10;;
4208;SDS011;36320;48.860;2.380;2022-12-18T15:20:43;18.92;;;6.53;;
4208;SDS011;36320;48.860;2.380;2022-12-18T15:25:58;18.10;;;5.78;;
4208;SDS011;36320;48.860;2.380;2022-12-18T15:28:27;15.95;;;5.18;;
4208;SDS011;36320;48.860;2.380;2022-12-18T15:31:05;17.48;;;5.57;;
4208;SDS011;36320;48.860;2.380;2022-12-18T15:33:42;15.98;;;5.90;;
4208;SDS011;36320;48.860;2.380;2022-12-18T15:36:17;18.60;;;6.75;;
4208;SDS011;36320;48.860;2.380;2022-12-18T15:38:47;17.23;;;5.72;;
4208;SDS011;36320;48.860;2.380;2022-12-18T15:41:15;30.58;;;10.80;;
4208;SDS011;36320;48.860;2.380;2022-12-18T15:43:42;14.88;;;4.88;;
4208;SDS011;36320;48.860;2.380;2022-12-18T15:46:11;16.60;;;6.22;;
4208;SDS011;36320;48.860;2.380;2022-12-18T15:48:48;19.15;;;6.45;;
4208;SDS011;36320;48.860;2.380;2022-12-18T15:51:20;17.13;;;5.40;;
4208;SDS011;36320;48.860;2.380;2022-12-18T15:53:54;15.02;;;5.00;;
4208;SDS011;36320;48.860;2.380;2022-12-18T15:56:21;19.43;;;5.73;;
4208;SDS011;36320;48.860;2.380;2022-12-18T15:59:13;17.35;;;5.20;;
4208;SDS011;36320;48.860;2.380;2022-12-18T16:01:43;16.58;;;5.80;;
4208;SDS011;36320;48.860;2.380;2022-12-18T16:04:11;15.25;;;5.10;;
4208;SDS011;36320;48.860;2.380;2022-12-18T16:06:38;20.35;;;6.45;;
4208;SDS011;36320;48.860;2.380;2022-12-18T16:09:04;16.13;;;5.50;;
4208;SDS011;36320;48.860;2.380;2022-12-18T16:11:32;18.33;;;5.50;;
4208;SDS011;36320;48.860;2.380;2022-12-18T16:16:37;15.50;;;5.60;;
4208;SDS011;36320;48.860;2.380;2022-12-18T16:19:03;14.70;;;5.33;;
4208;SDS011;36320;48.860;2.380;2022-12-18T16:21:28;15.95;;;5.53;;
4208;SDS011;36320;48.860;2.380;2022-12-18T16:23:54;17.10;;;5.90;;
4208;SDS011;36320;48.860;2.380;2022-12-18T16:26:21;14.43;;;5.60;;
4208;SDS011;36320;48.860;2.380;2022-12-18T16:28:50;16.00;;;5.40;;
4208;SDS011;36320;48.860;2.380;2022-12-18T16:31:18;18.23;;;5.70;;
4208;SDS011;36320;48.860;2.380;2022-12-18T16:33:44;18.13;;;6.18;;
4208;SDS011;36320;48.860;2.380;2022-12-18T16:36:33;17.48;;;6.07;;
4208;SDS011;36320;48.860;2.380;2022-12-18T16:38:59;16.17;;;5.78;;
4208;SDS011;36320;48.860;2.380;2022-12-18T16:41:25;14.30;;;5.20;;
4208;SDS011;36320;48.860;2.380;2022-12-18T16:43:56;16.88;;;5.90;;
4208;SDS011;36320;48.860;2.380;2022-12-18T16:46:22;17.80;;;6.70;;
4208;SDS011;36320;48.860;2.380;2022-12-18T16:48:51;22.00;;;6.70;;
4208;SDS011;36320;48.860;2.380;2022-12-18T16:51:17;17.52;;;5.90;;
4208;SDS011;36320;48.860;2.380;2022-12-18T16:53:43;15.68;;;5.00;;
4208;SDS011;36320;48.860;2.380;2022-12-18T16:56:08;16.70;;;5.47;;
4208;SDS011;36320;48.860;2.380;2022-12-18T16:58:35;19.83;;;5.90;;
4208;SDS011;36320;48.860;2.380;2022-12-18T17:01:06;15.15;;;5.30;;
4208;SDS011;36320;48.860;2.380;2022-12-18T17:03:35;20.73;;;7.00;;
4208;SDS011;36320;48.860;2.380;2022-12-18T17:06:02;19.03;;;6.30;;
4208;SDS011;36320;48.860;2.380;2022-12-18T17:08:30;18.27;;;5.60;;
4208;SDS011;36320;48.860;2.380;2022-12-18T17:11:06;15.90;;;5.65;;
4208;SDS011;36320;48.860;2.380;2022-12-18T17:13:35;17.37;;;5.70;;
4208;SDS011;36320;48.860;2.380;2022-12-18T17:16:07;16.42;;;6.20;;
4208;SDS011;36320;48.860;2.380;2022-12-18T17:18:34;17.52;;;6.05;;
4208;SDS011;36320;48.860;2.380;2022-12-18T17:21:00;17.95;;;5.22;;
4208;SDS011;36320;48.860;2.380;2022-12-18T17:23:27;20.00;;;5.90;;
4208;SDS011;36320;48.860;2.380;2022-12-18T17:25:53;22.30;;;6.95;;
4208;SDS011;36320;48.860;2.380;2022-12-18T17:28:23;21.60;;;6.93;;
4208;SDS011;36320;48.860;2.380;2022-12-18T17:30:53;19.33;;;6.28;;
4208;SDS011;36320;48.860;2.380;2022-12-18T17:33:20;19.20;;;6.13;;
4208;SDS011;36320;48.860;2.380;2022-12-18T17:35:47;19.02;;;6.15;;
4208;SDS011;36320;48.860;2.380;2022-12-18T17:38:15;19.80;;;6.82;;
4208;SDS011;36320;48.860;2.380;2022-12-18T17:40:41;18.50;;;5.93;;
4208;SDS011;36320;48.860;2.380;2022-12-18T17:43:07;22.10;;;6.78;;
4208;SDS011;36320;48.860;2.380;2022-12-18T17:45:35;19.37;;;5.90;;